GB-0349 weather

Public forecast

Using degrees Celsius for public forecast. Weather courtesy of forecast.io.

Closest aviation weather report (METAR) to Royal Bournemouth Hospital Helipad

Closest report is Bournemouth Airport, 2.2 nm (4.0 km) NNW. Retrieved 2020/08/12 11:20 UTC (8 minutes ago):

EGHH 121120Z 14009KT 110V180 CAVOK 30/14 Q1013

Closest aviation forecast (TAF) to Royal Bournemouth Hospital Helipad

Forecast is more than 12 hours old.

Closest forecast is Bournemouth Airport, 2.2 nm (4.0 km) NNW. Retrieved 2020/02/21 21:06 UTC (6 months ago):

TAF EGHH 210200Z 2021/2123 CNL